• °C
  • Pobieranie danych...
wx



METAR EPBY 010230Z 02004KT 9999 SCT006 13/12 Q1009=

METAR EPGD 010230Z 04006KT 010V070 9999 BKN011 14/12 Q1010 =

METAR EPKK 010230Z 30003KT 5000 -DZ BR FEW006 BKN008 12/11 Q1006 =

METAR EPKT 010230Z 34005KT 8000 SCT002 OVC003 11/11 Q1006 =

METAR EPLB 010230Z 04006KT 2100 -DZ BR OVC003 12/12 Q1005 =

METAR EPLL 010230Z 36005KT 9999 BKN007 13/12 Q1007 =

METAR EPMO 010230Z 04007KT 9999 BKN029 13/13 Q1008 =

METAR EPPO 010230Z 34004KT 9999 -RA SCT007 12/11 Q1009 =

METAR EPRA 010230Z NIL=

METAR EPRZ 010230Z 32006KT 2500 BR OVC002 12/12 Q1004 =

METAR EPSC 010230Z 01003KT 340V050 9999 MIFG NSC 10/10 Q1011 =

METAR EPSY 010230Z 02005KT 7000 MIFG NSC 10/10 Q1009=

METAR EPWA 010230Z 04006KT 010V080 9999 BKN007 BKN016 13/12 Q1007
NOSIG=

METAR EPWR 010230Z 33006KT 8000 -RA BKN007 12/11 Q1009 =

METAR EPZG 010230Z NIL=



IMGW-PIB Sites